Time;durP1;ratioP1;P1;durP2;ratioP2;P2;SDS_P1;SDS_P2;PMS_P1;PMS_P2;Temp;Humidity;BMP_temperature;BMP_pressure;BME280_temperature;BME280_humidity;BME280_pressure;Samples;Min_cycle;Max_cycle;Signal;HPM_P1;HPM_P2
2022/12/06 00:01:28;;;;;;;20.67;10.73;;;;;;;6.30;73.10;95785.31;5020721;28;20153;-81
2022/12/06 00:03:56;;;;;;;19.52;9.80;;;;;;;6.75;73.26;95840.00;5020779;28;20072;-80
2022/12/06 00:06:24;;;;;;;21.55;10.85;;;;;;;6.76;72.87;95833.69;5038593;28;20040;-80
2022/12/06 00:08:51;;;;;;;17.73;10.60;;;;;;;5.79;72.74;95696.53;5020738;28;20048;-81
2022/12/06 00:11:19;;;;;;;25.80;11.63;;;;;;;6.36;73.50;95786.22;5038630;28;20044;-80
2022/12/06 00:13:46;;;;;;;21.20;10.98;;;;;;;6.69;72.99;95830.38;5039037;28;20041;-81
2022/12/06 00:16:14;;;;;;;22.17;10.70;;;;;;;5.55;73.14;95658.09;5038701;28;20128;-81
2022/12/06 00:18:47;;;;;;;21.10;10.15;;;;;;;6.44;73.08;95799.03;5046844;27;2035281;-79
2022/12/06 00:21:14;;;;;;;22.40;9.55;;;;;;;6.36;72.77;95781.75;5076875;28;20043;-79
2022/12/06 00:23:42;;;;;;;16.38;9.40;;;;;;;6.52;72.33;95804.75;5095416;28;20093;-79
2022/12/06 00:26:08;;;;;;;18.35;9.95;;;;;;;6.37;72.29;95780.72;5068833;28;20040;-78
2022/12/06 00:28:35;;;;;;;19.50;9.45;;;;;;;6.34;72.35;95780.38;5085834;28;20054;-79
2022/12/06 00:31:04;;;;;;;20.48;10.38;;;;;;;6.74;72.23;95841.03;5076509;28;20042;-79
2022/12/06 00:33:29;;;;;;;22.23;11.38;;;;;;;6.40;71.78;95793.44;5064520;28;20127;-78
2022/12/06 00:36:00;;;;;;;21.88;9.88;;;;;;;6.61;71.86;95831.53;5056584;28;20721;-79
2022/12/06 00:38:27;;;;;;;20.90;10.30;;;;;;;6.63;72.13;95829.50;5074663;28;20028;-79
2022/12/06 00:41:22;;;;;;;20.25;9.82;;;;;;;6.77;71.95;95840.56;5056558;28;20071;-80
2022/12/06 00:43:48;;;;;;;16.15;9.55;;;;;;;6.72;71.46;95838.63;5049860;28;20043;-80
2022/12/06 00:46:16;;;;;;;17.25;9.20;;;;;;;6.34;72.04;95812.78;5076576;28;20508;-80
2022/12/06 00:48:46;;;;;;;20.23;10.20;;;;;;;6.30;71.45;95800.31;5076845;28;20040;-80
2022/12/06 00:51:12;;;;;;;17.98;9.48;;;;;;;6.34;72.30;95839.13;5076818;28;20116;-80
2022/12/06 00:53:38;;;;;;;19.95;9.57;;;;;;;6.01;73.34;95815.22;5095599;28;20523;-80
2022/12/06 00:56:03;;;;;;;24.25;10.65;;;;;;;6.11;72.63;95799.63;5095522;28;20032;-80
2022/12/06 00:58:29;;;;;;;14.70;8.75;;;;;;;6.05;71.88;95771.59;5064700;28;20040;-80
2022/12/06 01:00:54;;;;;;;17.10;9.15;;;;;;;5.85;72.15;95734.28;5069991;28;20027;-80
2022/12/06 01:03:19;;;;;;;15.93;9.18;;;;;;;6.27;72.17;95792.88;5094599;28;20039;-80
2022/12/06 01:05:47;;;;;;;18.42;9.80;;;;;;;6.52;71.72;95822.38;5075927;28;20047;-80
2022/12/06 01:08:14;;;;;;;20.35;10.38;;;;;;;6.54;71.56;95823.78;5077653;28;20475;-78
2022/12/06 01:10:41;;;;;;;17.17;9.43;;;;;;;6.28;71.79;95765.50;5094374;28;20518;-79
2022/12/06 01:13:07;;;;;;;17.75;8.55;;;;;;;6.25;71.45;95766.78;5094701;28;20728;-78
2022/12/06 01:15:36;;;;;;;18.63;9.48;;;;;;;6.62;71.67;95822.63;5075932;28;20058;-79
2022/12/06 01:18:01;;;;;;;22.38;9.13;;;;;;;6.06;71.71;95728.44;5090088;28;20072;-78
2022/12/06 01:20:27;;;;;;;21.63;9.85;;;;;;;6.52;71.74;95801.31;5056206;28;20516;-80
2022/12/06 01:22:52;;;;;;;16.15;9.32;;;;;;;6.64;71.69;95807.34;5080858;28;20067;-79
2022/12/06 01:25:18;;;;;;;19.10;9.18;;;;;;;5.93;71.67;95699.72;5094585;28;20032;-79
2022/12/06 01:27:43;;;;;;;17.52;9.48;;;;;;;6.07;71.75;95714.25;5076138;28;20085;-80
2022/12/06 01:30:09;;;;;;;16.50;9.07;;;;;;;6.25;71.48;95739.63;5081241;28;20032;-80
2022/12/06 01:32:34;;;;;;;18.13;9.05;;;;;;;6.59;71.92;95786.97;5081022;28;20045;-80
2022/12/06 01:35:00;;;;;;;23.38;10.07;;;;;;;6.35;71.66;95745.09;5080610;28;20615;-80
2022/12/06 01:37:25;;;;;;;16.88;9.63;;;;;;;6.59;71.68;95784.34;5066955;28;20033;-80
2022/12/06 01:39:50;;;;;;;24.88;10.02;;;;;;;6.19;71.58;95710.53;5056919;28;20114;-80
2022/12/06 01:42:16;;;;;;;17.70;9.38;;;;;;;5.80;71.56;95656.78;5062115;28;20042;-81
2022/12/06 01:44:41;;;;;;;18.92;10.25;;;;;;;6.72;71.46;95796.44;5062394;28;20331;-80
2022/12/06 01:47:22;;;;;;;17.90;9.93;;;;;;;6.73;71.82;95795.41;5062350;28;20036;-80
2022/12/06 01:50:03;;;;;;;22.95;10.55;;;;;;;6.76;71.32;95786.25;5043739;28;20518;-80
2022/12/06 01:52:34;;;;;;;20.50;10.25;;;;;;;6.64;71.55;95772.31;5056416;28;20032;-80
2022/12/06 01:55:01;;;;;;;;;;;;;;;6.75;71.74;95790.72;5068284;28;20040;-80
2022/12/06 01:57:28;;;;;;;19.15;8.65;;;;;;;6.57;71.81;95775.84;5072283;28;19920;-80
2022/12/06 01:59:53;;;;;;;18.25;9.40;;;;;;;6.14;71.58;95697.28;5042484;28;20036;-80
2022/12/06 02:02:19;;;;;;;25.08;10.50;;;;;;;6.52;71.71;95753.88;5053770;28;20028;-80
2022/12/06 02:04:45;;;;;;;16.38;9.98;;;;;;;6.56;71.62;95758.44;5062104;28;20047;-80
2022/12/06 02:07:11;;;;;;;22.35;10.25;;;;;;;6.76;71.57;95784.41;5061879;28;20040;-80
2022/12/06 02:09:37;;;;;;;16.10;9.15;;;;;;;5.95;71.71;95652.94;5061557;28;20118;-80
2022/12/06 02:12:03;;;;;;;18.42;10.18;;;;;;;6.41;71.73;95723.09;5061393;28;20038;-80
2022/12/06 02:14:33;;;;;;;18.05;9.88;;;;;;;6.57;71.41;95746.06;5060726;28;20040;-80
2022/12/06 02:17:16;;;;;;;18.23;9.90;;;;;;;6.78;71.54;95771.00;5080197;28;20709;-80
2022/12/06 02:20:04;;;;;;;16.30;8.88;;;;;;;6.79;71.93;95773.38;5080379;28;20120;-80
2022/12/06 02:23:18;;;;;;;18.40;9.73;;;;;;;6.77;71.80;95764.91;5072570;28;20114;-80
2022/12/06 02:25:52;;;;;;;18.60;10.70;;;;;;;6.78;71.63;95760.44;4946195;28;20576;-80
2022/12/06 02:28:55;;;;;;;20.45;10.48;;;;;;;6.77;71.86;95762.28;5059013;28;20634;-81
2022/12/06 02:31:27;;;;;;;19.55;10.15;;;;;;;6.66;71.77;95747.31;5056689;28;20119;-80
2022/12/06 02:34:00;;;;;;;24.83;10.40;;;;;;;6.15;71.75;95655.94;5059718;28;20116;-80
2022/12/06 02:36:50;;;;;;;21.10;9.90;;;;;;;6.50;71.56;95714.59;5059637;28;20135;-80
2022/12/06 02:39:23;;;;;;;23.08;10.13;;;;;;;6.23;71.74;95678.50;5059742;28;20044;-80
2022/12/06 02:41:59;;;;;;;17.00;10.23;;;;;;;6.78;71.74;95749.91;5058840;28;20656;-80
2022/12/06 02:44:33;;;;;;;19.67;8.80;;;;;;;6.43;71.68;95697.31;5042335;28;20730;-80
2022/12/06 02:47:00;;;;;;;21.27;10.10;;;;;;;5.62;71.78;95571.94;5041105;28;20860;-80
2022/12/06 02:49:30;;;;;;;18.63;10.40;;;;;;;6.16;72.39;95671.53;5041478;28;20040;-80
2022/12/06 02:51:56;;;;;;;26.25;9.73;;;;;;;6.59;71.82;95734.25;5057610;28;20601;-80
2022/12/06 02:54:24;;;;;;;14.73;8.15;;;;;;;6.40;72.19;95719.69;5060678;28;20392;-80
2022/12/06 02:56:49;;;;;;;15.70;9.18;;;;;;;6.18;72.31;95681.81;5041738;28;20837;-80
2022/12/06 02:59:15;;;;;;;14.43;8.32;;;;;;;6.35;71.97;95709.03;5077417;28;20047;-79
2022/12/06 03:01:46;;;;;;;13.65;7.72;;;;;;;6.24;72.35;95690.63;5064499;28;20066;-80
2022/12/06 03:04:45;;;;;;;15.18;8.82;;;;;;;6.66;72.11;95749.94;5080682;28;20103;-79
2022/12/06 03:07:16;;;;;;;14.85;7.50;;;;;;;6.69;71.67;95743.41;5033823;28;20040;-80
2022/12/06 03:09:57;;;;;;;22.33;9.05;;;;;;;6.10;71.70;95654.00;5059843;28;20037;-80
2022/12/06 03:12:28;;;;;;;12.73;7.60;;;;;;;6.54;71.89;95728.09;5059309;28;20058;-79
2022/12/06 03:15:32;;;;;;;15.43;8.70;;;;;;;6.67;71.93;95748.09;5042352;28;20280;-79
2022/12/06 03:18:05;;;;;;;13.27;7.55;;;;;;;6.58;71.86;95723.94;5050073;28;20062;-80
2022/12/06 03:20:41;;;;;;;15.23;8.15;;;;;;;6.68;72.04;95734.69;5061393;28;20032;-80
2022/12/06 03:23:11;;;;;;;15.68;7.57;;;;;;;6.18;71.57;95658.91;5048970;28;20036;-79
2022/12/06 03:25:38;;;;;;;14.02;7.38;;;;;;;6.47;71.98;95703.72;5074504;28;20473;-80
2022/12/06 03:28:06;;;;;;;16.92;7.53;;;;;;;6.67;71.83;95735.72;5060792;28;20056;-80
2022/12/06 03:30:33;;;;;;;16.77;8.02;;;;;;;6.60;71.83;95727.16;5079356;28;20046;-79
2022/12/06 03:33:00;;;;;;;18.08;9.48;;;;;;;6.51;72.21;95739.91;5080141;28;20125;-79
2022/12/06 03:35:32;;;;;;;15.95;8.68;;;;;;;6.48;72.80;95737.75;5079444;28;20127;-79
2022/12/06 03:38:09;;;;;;;22.40;9.85;;;;;;;6.34;72.51;95711.88;5076286;28;20522;-79
2022/12/06 03:40:36;;;;;;;18.23;9.20;;;;;;;6.56;72.81;95723.41;5047011;28;20470;-79
2022/12/06 03:43:03;;;;;;;19.27;9.32;;;;;;;6.12;72.34;95649.31;5061663;28;20036;-79
2022/12/06 03:46:00;;;;;;;22.13;10.10;;;;;;;5.76;72.21;95603.03;5061927;28;20031;-80
2022/12/06 03:48:42;;;;;;;18.95;9.60;;;;;;;6.19;72.29;95663.13;5075622;28;20051;-79
2022/12/06 03:51:10;;;;;;;16.27;9.77;;;;;;;6.64;72.40;95724.88;5045118;28;20040;-80
2022/12/06 03:53:48;;;;;;;19.55;9.82;;;;;;;6.01;72.16;95623.81;5060340;28;20102;-78
2022/12/06 03:56:14;;;;;;;21.60;10.93;;;;;;;6.62;72.21;95717.19;5044713;28;20165;-79
2022/12/06 03:58:39;;;;;;;23.92;10.93;;;;;;;6.35;72.10;95671.34;5056364;28;20040;-79
2022/12/06 04:01:05;;;;;;;23.60;11.85;;;;;;;6.10;72.58;95651.38;5046599;28;20567;-78
2022/12/06 04:03:30;;;;;;;23.73;12.35;;;;;;;6.13;73.18;95671.19;5078934;28;20095;-79
2022/12/06 04:05:56;;;;;;;25.55;12.80;;;;;;;6.24;72.92;95666.91;5079407;28;20032;-79
2022/12/06 04:08:21;;;;;;;28.52;13.10;;;;;;;6.44;72.86;95683.09;5052184;28;20028;-78
2022/12/06 04:10:46;;;;;;;23.02;11.57;;;;;;;6.05;73.19;95626.78;5040943;28;20114;-78
2022/12/06 04:13:12;;;;;;;27.40;12.77;;;;;;;6.06;73.27;95633.66;5041562;28;20071;-78
2022/12/06 04:15:38;;;;;;;26.15;11.85;;;;;;;6.29;72.85;95669.66;5059698;28;20461;-78
2022/12/06 04:18:14;;;;;;;26.13;12.95;;;;;;;6.13;73.02;95643.00;5072826;28;20059;-78
2022/12/06 04:23:41;;;;;;;27.38;13.05;;;;;;;6.60;72.93;95721.88;5063735;28;20096;-78
2022/12/06 04:26:10;;;;;;;29.80;13.10;;;;;;;6.55;73.06;95700.72;5073978;28;20036;-77
2022/12/06 04:39:32;;;;;;;32.42;14.65;;;;;;;6.69;73.00;95732.84;5059163;28;20051;-78
2022/12/06 04:44:43;;;;;;;30.42;13.63;;;;;;;6.04;74.11;95668.09;5071425;28;20047;-78
2022/12/06 04:47:08;;;;;;;34.90;15.18;;;;;;;6.32;73.63;95696.34;5057964;28;20029;-78
2022/12/06 04:49:34;;;;;;;34.08;14.93;;;;;;;6.23;73.96;95665.31;5040031;28;20033;-78
2022/12/06 04:52:00;;;;;;;27.90;13.85;;;;;;;6.30;73.62;95673.88;5059345;28;20119;-78
2022/12/06 04:54:28;;;;;;;34.85;15.93;;;;;;;6.33;73.40;95676.06;5040357;28;20044;-78
2022/12/06 04:56:54;;;;;;;32.65;14.93;;;;;;;6.02;73.41;95616.72;5040287;28;20058;-78
2022/12/06 04:59:20;;;;;;;30.35;14.05;;;;;;;6.47;73.57;95704.53;5057943;28;20044;-78
2022/12/06 05:01:45;;;;;;;31.42;13.95;;;;;;;6.15;73.16;95651.50;5076946;28;20441;-79
2022/12/06 05:04:11;;;;;;;35.78;15.70;;;;;;;6.55;73.36;95704.16;5041842;28;20121;-78
2022/12/06 05:06:36;;;;;;;30.10;12.85;;;;;;;6.57;73.60;95711.81;5062143;28;20028;-78
2022/12/06 05:09:03;;;;;;;26.98;12.43;;;;;;;6.71;73.49;95720.25;5073956;28;20056;-79
2022/12/06 05:11:28;;;;;;;28.13;12.68;;;;;;;6.35;73.21;95666.06;5052536;28;20541;-79
2022/12/06 05:13:53;;;;;;;30.08;14.45;;;;;;;5.74;73.09;95570.88;5057020;28;20119;-78
2022/12/06 05:16:19;;;;;;;29.30;13.00;;;;;;;6.09;72.98;95630.56;5050245;28;20086;-79
2022/12/06 05:18:44;;;;;;;27.35;11.90;;;;;;;6.23;73.03;95631.06;5054767;28;20040;-80
2022/12/06 05:21:14;;;;;;;25.60;12.50;;;;;;;6.39;72.85;95665.38;5077768;28;20043;-81
2022/12/06 05:23:40;;;;;;;27.95;11.55;;;;;;;5.82;72.91;95570.50;5069893;28;20458;-80
2022/12/06 05:26:09;;;;;;;26.42;12.50;;;;;;;6.28;72.73;95644.34;5052534;28;20070;-80
2022/12/06 05:28:34;;;;;;;25.40;13.13;;;;;;;5.77;73.22;95573.06;5056202;28;20032;-80
2022/12/06 05:31:00;;;;;;;31.83;12.88;;;;;;;6.09;73.29;95628.72;5060444;28;20434;-80
2022/12/06 05:33:26;;;;;;;33.55;13.00;;;;;;;6.32;72.88;95674.47;5042670;28;20082;-81
2022/12/06 05:35:52;;;;;;;25.98;13.10;;;;;;;6.09;73.60;95652.44;5070238;28;20044;-80
2022/12/06 05:38:18;;;;;;;31.92;12.27;;;;;;;5.81;73.15;95610.22;5069315;28;20028;-80
2022/12/06 05:40:45;;;;;;;23.92;12.77;;;;;;;5.62;73.39;95567.47;5049746;28;20115;-79
2022/12/06 05:43:10;;;;;;;25.58;11.45;;;;;;;6.53;72.97;95708.06;5068518;28;20032;-78
2022/12/06 05:45:37;;;;;;;25.58;12.23;;;;;;;6.25;73.02;95648.25;5043661;28;20043;-79
2022/12/06 05:48:02;;;;;;;22.40;10.27;;;;;;;6.40;72.92;95682.78;5044326;28;20570;-79
2022/12/06 05:50:28;;;;;;;23.98;10.65;;;;;;;6.66;73.02;95707.75;5069322;28;20045;-78
2022/12/06 05:52:55;;;;;;;20.60;10.25;;;;;;;6.41;72.54;95675.66;5053120;28;20032;-80
2022/12/06 05:55:20;;;;;;;22.27;9.27;;;;;;;6.29;72.67;95636.19;5048903;28;20521;-80
2022/12/06 05:57:46;;;;;;;26.15;10.55;;;;;;;6.33;73.09;95658.38;5048890;28;20028;-80
2022/12/06 06:00:12;;;;;;;20.52;9.32;;;;;;;6.07;72.35;95630.00;5052257;28;20441;-80
2022/12/06 06:02:37;;;;;;;18.45;9.23;;;;;;;5.98;72.71;95632.19;5066385;28;20082;-80
2022/12/06 06:05:03;;;;;;;13.65;7.30;;;;;;;5.62;72.32;95564.84;5053821;28;20273;-82
2022/12/06 06:07:28;;;;;;;20.63;7.90;;;;;;;6.19;72.08;95660.50;5048403;28;20024;-82
2022/12/06 06:09:54;;;;;;;14.80;7.30;;;;;;;6.62;72.33;95709.28;5055568;28;20032;-81
2022/12/06 06:12:19;;;;;;;16.77;6.75;;;;;;;6.07;71.83;95638.69;5052088;28;20032;-80
2022/12/06 06:14:45;;;;;;;18.33;7.55;;;;;;;6.33;71.70;95673.44;5052822;28;20145;-82
2022/12/06 06:17:10;;;;;;;16.42;7.47;;;;;;;6.14;71.41;95641.97;5070788;28;20125;-83
2022/12/06 06:19:36;;;;;;;17.13;7.75;;;;;;;6.15;71.55;95626.97;5052112;28;20797;-82
2022/12/06 06:22:01;;;;;;;25.05;9.27;;;;;;;6.67;71.92;95709.38;5060642;28;21800;-80
2022/12/06 06:24:27;;;;;;;19.38;8.57;;;;;;;4.89;71.28;95420.03;5060579;28;20040;-80
2022/12/06 06:26:53;;;;;;;20.55;9.63;;;;;;;6.59;71.29;95686.81;5048407;28;20735;-80
2022/12/06 06:29:19;;;;;;;21.33;8.63;;;;;;;6.28;71.45;95639.06;5048500;28;20062;-84
2022/12/06 06:31:45;;;;;;;21.38;8.90;;;;;;;6.05;71.66;95614.41;5045517;28;20036;-81
2022/12/06 06:34:10;;;;;;;24.42;9.80;;;;;;;6.82;71.28;95733.38;5064050;28;20035;-81
2022/12/06 06:36:36;;;;;;;19.58;10.35;;;;;;;6.65;71.46;95684.28;5063526;28;20510;-82
2022/12/06 06:39:01;;;;;;;22.90;11.18;;;;;;;6.23;70.94;95623.19;5045435;28;20064;-81
2022/12/06 06:41:26;;;;;;;41.38;13.27;;;;;;;5.94;70.77;95562.63;5046715;28;20127;-80
2022/12/06 06:43:52;;;;;;;21.65;10.45;;;;;;;6.65;71.26;95671.91;5063358;28;20419;-80
2022/12/06 06:46:17;;;;;;;22.40;9.77;;;;;;;6.65;70.85;95660.56;5067608;28;20046;-80
2022/12/06 06:48:43;;;;;;;24.00;11.05;;;;;;;6.23;71.45;95608.19;5047887;28;20352;-80
2022/12/06 06:51:11;;;;;;;21.17;10.65;;;;;;;6.37;71.40;95627.94;5043333;28;20040;-80
2022/12/06 06:53:37;;;;;;;20.25;10.50;;;;;;;7.01;71.64;95715.53;5047085;28;20062;-80
2022/12/06 06:56:04;;;;;;;28.27;11.45;;;;;;;6.26;71.27;95593.72;5067973;28;20032;-81
2022/12/06 06:58:30;;;;;;;25.23;11.63;;;;;;;6.51;71.52;95642.41;5047775;28;20226;-80
2022/12/06 07:00:58;;;;;;;23.50;11.90;;;;;;;7.02;71.30;95705.78;5043472;28;20041;-80
2022/12/06 07:03:24;;;;;;;29.23;12.75;;;;;;;6.48;71.42;95610.47;5061244;28;20040;-80
2022/12/06 07:05:52;;;;;;;27.50;12.20;;;;;;;6.49;71.38;95612.84;5057584;28;20043;-80
2022/12/06 07:08:18;;;;;;;25.35;11.70;;;;;;;6.91;71.36;95679.22;5052230;28;20054;-80
2022/12/06 07:10:47;;;;;;;23.88;11.95;;;;;;;7.11;71.56;95714.88;5040726;28;20111;-82
2022/12/06 07:13:14;;;;;;;33.72;13.00;;;;;;;6.42;71.16;95616.66;5042327;28;20177;-80
2022/12/06 07:15:46;;;;;;;31.17;12.35;;;;;;;6.29;71.22;95599.31;5067476;28;20032;-81
2022/12/06 07:18:11;;;;;;;31.30;12.85;;;;;;;6.54;71.46;95638.50;5042381;28;20058;-81
2022/12/06 07:20:37;;;;;;;30.63;12.52;;;;;;;6.51;71.50;95631.88;5059224;28;20035;-82
2022/12/06 07:23:03;;;;;;;39.53;13.02;;;;;;;6.55;71.90;95642.75;5065625;28;20557;-80
2022/12/06 07:25:29;;;;;;;35.25;14.18;;;;;;;6.42;71.48;95596.41;5046376;28;20040;-82
2022/12/06 07:27:54;;;;;;;32.58;14.25;;;;;;;6.96;71.03;95666.13;5044085;28;20046;-81
2022/12/06 07:30:19;;;;;;;26.85;12.45;;;;;;;6.80;70.99;95629.19;5043541;28;20048;-81
2022/12/06 07:32:45;;;;;;;26.85;12.93;;;;;;;6.83;71.17;95634.78;5041860;28;20032;-81
2022/12/06 07:35:10;;;;;;;24.23;11.88;;;;;;;7.37;70.78;95711.63;5067810;28;20070;-81
2022/12/06 07:37:36;;;;;;;30.58;13.57;;;;;;;6.94;71.15;95652.38;5068121;28;20882;-81
2022/12/06 07:40:01;;;;;;;26.98;13.07;;;;;;;7.32;70.87;95711.56;5063040;28;20098;-81
2022/12/06 07:45:13;;;;;;;27.27;11.55;;;;;;;7.04;70.87;95649.09;5063449;28;20055;-80
2022/12/06 07:47:41;;;;;;;24.25;11.68;;;;;;;7.29;70.63;95681.16;5064950;28;20135;-81
2022/12/06 07:50:16;;;;;;;32.90;11.43;;;;;;;7.44;71.00;95693.78;5048219;28;20063;-82
2022/12/06 07:52:42;;;;;;;31.50;13.85;;;;;;;6.96;70.98;95616.00;5070354;28;20140;-81
2022/12/06 07:55:09;;;;;;;27.63;11.80;;;;;;;7.02;71.02;95629.31;5068781;28;20036;-81
2022/12/06 07:57:34;;;;;;;29.08;14.40;;;;;;;7.13;71.34;95633.69;5052012;28;20121;-82
2022/12/06 08:00:00;;;;;;;27.80;13.43;;;;;;;7.69;70.88;95696.00;5050393;28;20040;-81
2022/12/06 08:02:27;;;;;;;38.55;14.38;;;;;;;6.57;70.53;95514.97;5051887;28;20111;-82
2022/12/06 08:04:53;;;;;;;25.70;11.82;;;;;;;7.79;70.50;95705.91;5048811;28;20073;-82
2022/12/06 08:07:20;;;;;;;30.63;12.95;;;;;;;5.76;70.14;95387.22;5054409;28;20076;-84
2022/12/06 08:09:46;;;;;;;27.40;10.93;;;;;;;7.56;69.69;95668.09;5053149;28;20039;-82
2022/12/06 08:12:12;;;;;;;24.80;10.90;;;;;;;7.40;70.01;95634.59;5064141;28;20482;-80
2022/12/06 08:14:37;;;;;;;23.88;11.20;;;;;;;7.62;69.66;95653.94;5036780;28;20550;-81
2022/12/06 08:17:04;;;;;;;24.15;10.00;;;;;;;7.19;69.66;95585.22;5062931;28;20055;-82
2022/12/06 08:19:30;;;;;;;20.13;9.80;;;;;;;7.84;69.32;95663.75;5059947;28;20812;-81
2022/12/06 08:21:55;;;;;;;24.77;10.25;;;;;;;7.46;68.71;95622.31;5063561;28;20028;-81
2022/12/06 08:24:21;;;;;;;19.08;8.60;;;;;;;8.08;68.67;95700.25;5057949;28;20032;-81
2022/12/06 08:26:48;;;;;;;20.05;8.52;;;;;;;7.98;68.00;95673.69;5044073;28;20042;-82
2022/12/06 08:29:14;;;;;;;20.45;9.23;;;;;;;8.13;68.16;95681.81;5061275;28;20047;-82
2022/12/06 08:31:40;;;;;;;25.45;10.40;;;;;;;7.97;68.04;95669.47;5065847;28;20040;-81
2022/12/06 08:34:06;;;;;;;19.17;9.15;;;;;;;7.58;68.32;95612.44;5045262;28;20785;-82
2022/12/06 08:36:32;;;;;;;22.02;10.35;;;;;;;7.28;68.18;95563.47;5045808;28;20050;-82
2022/12/06 08:38:59;;;;;;;18.55;9.55;;;;;;;7.95;67.81;95668.91;5064069;28;20036;-81
2022/12/06 08:44:12;;;;;;;17.73;9.50;;;;;;;7.84;67.15;95642.63;5068797;28;20123;-82
2022/12/06 08:46:39;;;;;;;16.50;8.38;;;;;;;7.58;67.10;95601.88;5051289;28;20595;-83
2022/12/06 08:49:05;;;;;;;18.13;9.23;;;;;;;8.15;66.89;95686.88;5049570;28;20058;-83
2022/12/06 08:51:32;;;;;;;16.90;9.18;;;;;;;7.40;67.30;95578.41;5050893;28;20082;-83
2022/12/06 08:53:58;;;;;;;21.33;9.73;;;;;;;7.61;67.27;95588.19;5062768;28;20143;-83
2022/12/06 08:56:23;;;;;;;30.02;10.20;;;;;;;7.37;67.73;95548.03;5072198;28;20042;-84
2022/12/06 08:58:53;;;;;;;29.95;11.45;;;;;;;8.18;67.39;95654.66;5072810;28;20067;-82
2022/12/06 09:01:24;;;;;;;20.75;10.82;;;;;;;8.32;66.97;95670.94;5048587;28;20143;-83
2022/12/06 09:03:49;;;;;;;23.98;8.95;;;;;;;7.33;66.67;95515.25;5048072;28;20075;-82
2022/12/06 09:06:16;;;;;;;23.25;10.65;;;;;;;7.82;66.38;95584.75;5065501;28;20044;-82
2022/12/06 09:08:41;;;;;;;22.95;9.80;;;;;;;8.22;66.41;95633.84;5066015;28;20024;-82
2022/12/06 09:11:08;;;;;;;22.98;10.82;;;;;;;8.50;66.17;95658.22;5047178;28;21014;-82
2022/12/06 09:13:35;;;;;;;21.52;11.35;;;;;;;8.53;66.81;95667.50;5065649;28;20060;-82
2022/12/06 09:16:14;;;;;;;36.50;12.23;;;;;;;8.40;66.92;95654.66;5018206;28;20132;-83
2022/12/06 09:18:41;;;;;;;23.25;12.05;;;;;;;8.03;66.96;95593.72;5046153;28;20082;-82
2022/12/06 09:21:18;;;;;;;20.73;11.45;;;;;;;8.48;66.66;95654.22;5070982;28;20036;-82
2022/12/06 09:23:44;;;;;;;25.13;11.55;;;;;;;8.17;66.23;95584.34;5050305;28;20033;-82
2022/12/06 09:26:09;;;;;;;21.17;12.23;;;;;;;8.23;66.63;95583.38;5053450;28;20047;-82
2022/12/06 09:28:37;;;;;;;26.40;12.38;;;;;;;8.03;66.42;95538.25;5068733;28;20032;-82
2022/12/06 09:31:04;;;;;;;20.58;10.93;;;;;;;8.54;65.41;95600.38;5073192;28;20043;-83
2022/12/06 09:33:30;;;;;;;23.42;11.63;;;;;;;8.74;65.75;95618.25;5056371;28;20028;-82
2022/12/06 09:35:57;;;;;;;36.33;15.60;;;;;;;8.09;66.11;95519.56;5072040;28;20042;-83
2022/12/06 09:38:26;;;;;;;29.85;15.23;;;;;;;8.17;65.86;95536.00;5048658;28;20105;-84
2022/12/06 09:40:52;;;;;;;41.53;15.40;;;;;;;8.68;65.43;95593.63;5056519;28;20035;-83
2022/12/06 09:43:50;;;;;;;32.83;13.82;;;;;;;8.75;66.04;95586.28;5059565;28;20409;-86
2022/12/06 09:46:40;;;;;;;23.00;10.93;;;;;;;8.89;65.25;95579.53;5057293;28;20048;-83
2022/12/06 09:49:26;;;;;;;21.00;10.52;;;;;;;8.55;65.07;95525.28;5069782;28;20070;-85
2022/12/06 09:52:23;;;;;;;25.88;11.57;;;;;;;8.89;65.39;95584.81;5053509;28;20078;-82
2022/12/06 09:55:22;;;;;;;23.55;10.98;;;;;;;8.27;65.16;95494.63;5035398;28;20040;-84
2022/12/06 09:58:07;;;;;;;16.85;9.10;;;;;;;8.96;65.58;95586.44;5072340;28;20090;-83
2022/12/06 10:00:44;;;;;;;26.55;9.82;;;;;;;8.74;65.24;95534.44;5024930;28;20119;-80
2022/12/06 10:03:30;;;;;;;25.50;10.88;;;;;;;8.91;65.87;95579.28;5057652;28;20123;-82
2022/12/06 10:06:07;;;;;;;26.63;10.90;;;;;;;8.98;65.52;95577.22;5060436;28;20043;-83
2022/12/06 10:08:33;;;;;;;25.33;10.45;;;;;;;8.98;64.75;95571.13;5052446;28;20705;-81
2022/12/06 10:11:08;;;;;;;21.02;10.95;;;;;;;8.88;65.40;95569.19;5053799;28;20094;-82
2022/12/06 10:13:55;;;;;;;25.38;10.85;;;;;;;8.90;65.54;95562.59;5056814;28;20047;-80
2022/12/06 10:16:58;;;;;;;26.95;10.45;;;;;;;8.96;65.06;95538.81;5077391;28;20044;-85
2022/12/06 10:19:33;;;;;;;22.40;10.50;;;;;;;9.21;64.50;95546.94;5058320;28;20059;-82
2022/12/06 10:22:10;;;;;;;18.85;10.27;;;;;;;9.18;64.73;95540.31;5055550;28;20039;-83
2022/12/06 10:25:09;;;;;;;20.60;11.10;;;;;;;9.21;65.07;95529.22;5055444;28;20277;-81
2022/12/06 10:27:46;;;;;;;26.85;10.50;;;;;;;8.73;64.43;95435.00;5052858;28;20028;-82
2022/12/06 10:30:14;;;;;;;21.55;10.23;;;;;;;9.33;64.11;95513.13;5076192;28;20044;-83
2022/12/06 10:32:50;;;;;;;22.52;10.80;;;;;;;7.70;63.47;95264.69;5076016;28;20465;-83
2022/12/06 10:35:34;;;;;;;19.63;10.07;;;;;;;9.36;63.81;95519.75;5056338;28;20709;-83
2022/12/06 10:38:18;;;;;;;24.88;11.68;;;;;;;9.46;63.90;95525.88;5055581;28;20035;-82
2022/12/06 10:40:54;;;;;;;22.52;9.50;;;;;;;9.59;63.39;95514.84;5071512;28;20183;-82
2022/12/06 10:43:27;;;;;;;28.10;10.63;;;;;;;9.72;62.89;95518.06;5058907;28;20514;-83
2022/12/06 10:49:21;;;;;;;21.83;10.60;;;;;;;9.82;61.71;95524.22;5075842;28;20040;-83
2022/12/06 10:51:46;;;;;;;23.23;10.43;;;;;;;9.55;62.40;95513.75;5049166;28;20048;-84
2022/12/06 10:54:16;;;;;;;19.48;9.60;;;;;;;8.94;62.47;95419.25;5069137;28;20028;-81
2022/12/06 10:56:43;;;;;;;22.30;10.63;;;;;;;9.35;61.66;95458.09;5075933;28;20032;-83
2022/12/06 10:59:23;;;;;;;25.23;11.98;;;;;;;9.73;62.22;95512.50;5072204;28;20033;-83
2022/12/06 11:01:51;;;;;;;23.77;11.95;;;;;;;9.03;62.47;95409.78;5055961;28;20028;-82
2022/12/06 11:04:19;;;;;;;23.05;10.90;;;;;;;9.79;62.62;95492.94;5059300;28;20074;-82
2022/12/06 11:06:52;;;;;;;31.23;11.70;;;;;;;9.15;62.65;95392.66;5059561;28;20044;-82
2022/12/06 11:09:36;;;;;;;24.88;12.88;;;;;;;9.89;61.98;95485.03;5053698;28;20154;-81
2022/12/06 11:12:26;;;;;;;21.98;11.30;;;;;;;9.60;61.65;95415.81;5076436;28;20051;-83
2022/12/06 11:15:00;;;;;;;27.13;10.95;;;;;;;9.47;62.12;95426.09;5053335;28;20097;-83
2022/12/06 11:17:51;;;;;;;;;;;;;;;;;;;;;
2022/12/06 11:20:34;;;;;;;24.20;11.00;;;;;;;9.87;62.51;95471.22;5087274;28;20127;-85
2022/12/06 11:23:24;;;;;;;23.60;11.00;;;;;;;9.64;61.66;95392.25;5040036;28;20044;-88
2022/12/06 11:26:14;;;;;;;26.83;11.85;;;;;;;10.17;61.06;95467.88;5050215;28;21135;-83
2022/12/06 11:28:42;;;;;;;22.75;9.95;;;;;;;9.28;61.05;95318.06;5040912;28;20048;-84
2022/12/06 11:31:35;;;;;;;23.55;10.30;;;;;;;9.87;60.91;95381.16;5057453;28;20096;-84
2022/12/06 11:34:02;;;;;;;25.75;11.75;;;;;;;10.44;60.83;95462.34;5047658;28;20031;-84
2022/12/06 11:36:29;;;;;;;24.27;11.68;;;;;;;9.58;60.39;95311.22;5050659;28;20120;-83
2022/12/06 11:38:54;;;;;;;26.30;11.80;;;;;;;10.57;60.51;95461.78;5040423;28;20575;-83
2022/12/06 11:41:24;;;;;;;18.80;10.00;;;;;;;10.44;60.47;95455.19;5041698;28;20029;-83
2022/12/06 11:43:51;;;;;;;18.15;10.05;;;;;;;9.13;60.42;95262.47;5047306;28;20051;-85
2022/12/06 11:46:20;;;;;;;20.88;10.15;;;;;;;10.42;59.73;95416.72;5049432;28;20049;-84
2022/12/06 11:48:46;;;;;;;26.40;12.18;;;;;;;10.75;59.21;95461.25;5048814;28;20123;-84
2022/12/06 11:51:18;;;;;;;22.85;10.43;;;;;;;10.82;59.85;95459.13;5056765;28;20147;-83
2022/12/06 11:53:58;;;;;;;18.38;10.10;;;;;;;10.58;58.57;95413.00;5072095;28;20035;-83
2022/12/06 11:56:31;;;;;;;26.58;10.35;;;;;;;10.63;59.54;95447.47;5051150;28;20028;-85
2022/12/06 11:59:23;;;;;;;18.98;10.70;;;;;;;10.40;59.22;95442.69;5048725;28;20024;-84
2022/12/06 12:01:51;;;;;;;24.35;10.63;;;;;;;9.77;59.17;95304.34;5071495;28;20038;-85
2022/12/06 12:04:32;;;;;;;20.38;11.07;;;;;;;10.57;59.21;95432.63;5053190;28;20093;-81
2022/12/06 12:07:16;;;;;;;27.08;11.02;;;;;;;10.63;59.25;95428.91;5068937;28;20073;-83
2022/12/06 12:09:47;;;;;;;20.40;11.27;;;;;;;10.49;59.64;95433.16;5052228;28;20095;-82